sensor_id;sensor_type;location;lat;lon;timestamp;P1;durP1;ratioP1;P2;durP2;ratioP2
22284;SDS011;11311;52.192;20.900;2023-03-01T00:01:53;113.57;;;61.53;;
22284;SDS011;11311;52.192;20.900;2023-03-01T00:04:23;85.63;;;48.33;;
22284;SDS011;11311;52.192;20.900;2023-03-01T00:06:52;114.63;;;61.88;;
22284;SDS011;11311;52.192;20.900;2023-03-01T00:09:21;97.30;;;51.30;;
22284;SDS011;11311;52.192;20.900;2023-03-01T00:11:51;113.97;;;61.80;;
22284;SDS011;11311;52.192;20.900;2023-03-01T00:14:21;120.22;;;62.55;;
22284;SDS011;11311;52.192;20.900;2023-03-01T00:16:50;107.00;;;60.03;;
22284;SDS011;11311;52.192;20.900;2023-03-01T00:19:20;115.17;;;63.00;;
22284;SDS011;11311;52.192;20.900;2023-03-01T00:24:18;109.32;;;60.10;;
22284;SDS011;11311;52.192;20.900;2023-03-01T00:26:47;103.25;;;57.15;;
22284;SDS011;11311;52.192;20.900;2023-03-01T00:29:18;106.28;;;58.08;;
22284;SDS011;11311;52.192;20.900;2023-03-01T00:34:15;98.55;;;52.97;;
22284;SDS011;11311;52.192;20.900;2023-03-01T00:36:45;98.50;;;55.35;;
22284;SDS011;11311;52.192;20.900;2023-03-01T00:39:14;90.03;;;46.10;;
22284;SDS011;11311;52.192;20.900;2023-03-01T00:41:44;72.53;;;42.35;;
22284;SDS011;11311;52.192;20.900;2023-03-01T00:44:13;100.80;;;52.85;;
22284;SDS011;11311;52.192;20.900;2023-03-01T00:46:43;103.25;;;55.13;;
22284;SDS011;11311;52.192;20.900;2023-03-01T00:49:12;97.63;;;51.33;;
22284;SDS011;11311;52.192;20.900;2023-03-01T00:51:42;73.18;;;41.60;;
22284;SDS011;11311;52.192;20.900;2023-03-01T00:54:11;76.28;;;42.20;;
22284;SDS011;11311;52.192;20.900;2023-03-01T00:56:40;90.55;;;50.40;;
22284;SDS011;11311;52.192;20.900;2023-03-01T00:59:09;86.28;;;51.08;;
22284;SDS011;11311;52.192;20.900;2023-03-01T01:01:38;78.77;;;41.00;;
22284;SDS011;11311;52.192;20.900;2023-03-01T01:04:10;93.00;;;51.05;;
22284;SDS011;11311;52.192;20.900;2023-03-01T01:06:41;87.05;;;47.47;;
22284;SDS011;11311;52.192;20.900;2023-03-01T01:09:13;91.18;;;49.20;;
22284;SDS011;11311;52.192;20.900;2023-03-01T01:11:45;90.13;;;49.13;;
22284;SDS011;11311;52.192;20.900;2023-03-01T01:14:15;92.47;;;48.90;;
22284;SDS011;11311;52.192;20.900;2023-03-01T01:16:45;88.90;;;47.72;;
22284;SDS011;11311;52.192;20.900;2023-03-01T01:19:16;86.80;;;47.85;;
22284;SDS011;11311;52.192;20.900;2023-03-01T01:21:45;83.82;;;48.15;;
22284;SDS011;11311;52.192;20.900;2023-03-01T01:24:15;90.50;;;48.95;;
22284;SDS011;11311;52.192;20.900;2023-03-01T01:26:45;99.72;;;40.28;;
22284;SDS011;11311;52.192;20.900;2023-03-01T01:29:14;99.78;;;51.70;;
22284;SDS011;11311;52.192;20.900;2023-03-01T01:31:43;87.43;;;47.75;;
22284;SDS011;11311;52.192;20.900;2023-03-01T01:34:13;92.35;;;39.53;;
22284;SDS011;11311;52.192;20.900;2023-03-01T01:36:46;85.28;;;47.47;;
22284;SDS011;11311;52.192;20.900;2023-03-01T01:39:17;89.35;;;44.78;;
22284;SDS011;11311;52.192;20.900;2023-03-01T01:41:46;92.60;;;49.38;;
22284;SDS011;11311;52.192;20.900;2023-03-01T01:44:17;88.35;;;47.53;;
22284;SDS011;11311;52.192;20.900;2023-03-01T01:46:49;93.68;;;50.38;;
22284;SDS011;11311;52.192;20.900;2023-03-01T01:49:23;89.97;;;47.42;;
22284;SDS011;11311;52.192;20.900;2023-03-01T01:52:04;81.07;;;46.60;;
22284;SDS011;11311;52.192;20.900;2023-03-01T01:54:38;85.20;;;46.95;;
22284;SDS011;11311;52.192;20.900;2023-03-01T01:57:11;87.05;;;48.95;;
22284;SDS011;11311;52.192;20.900;2023-03-01T01:59:42;82.90;;;47.20;;
22284;SDS011;11311;52.192;20.900;2023-03-01T02:02:14;92.10;;;47.70;;
22284;SDS011;11311;52.192;20.900;2023-03-01T02:04:43;92.20;;;50.80;;
22284;SDS011;11311;52.192;20.900;2023-03-01T02:09:45;83.57;;;46.78;;
22284;SDS011;11311;52.192;20.900;2023-03-01T02:12:16;88.63;;;49.90;;
22284;SDS011;11311;52.192;20.900;2023-03-01T02:14:48;97.13;;;50.92;;
22284;SDS011;11311;52.192;20.900;2023-03-01T02:17:17;97.30;;;51.67;;
22284;SDS011;11311;52.192;20.900;2023-03-01T02:19:49;96.57;;;48.80;;
22284;SDS011;11311;52.192;20.900;2023-03-01T02:22:27;94.43;;;50.42;;
22284;SDS011;11311;52.192;20.900;2023-03-01T02:25:02;91.47;;;48.67;;
22284;SDS011;11311;52.192;20.900;2023-03-01T02:27:48;93.18;;;49.85;;
22284;SDS011;11311;52.192;20.900;2023-03-01T02:30:22;99.70;;;51.83;;
22284;SDS011;11311;52.192;20.900;2023-03-01T02:32:53;92.30;;;51.05;;
22284;SDS011;11311;52.192;20.900;2023-03-01T02:35:24;96.55;;;51.58;;
22284;SDS011;11311;52.192;20.900;2023-03-01T02:37:52;92.53;;;51.60;;
22284;SDS011;11311;52.192;20.900;2023-03-01T02:40:24;92.57;;;52.17;;
22284;SDS011;11311;52.192;20.900;2023-03-01T02:42:53;89.43;;;50.42;;
22284;SDS011;11311;52.192;20.900;2023-03-01T02:45:25;90.28;;;51.63;;
22284;SDS011;11311;52.192;20.900;2023-03-01T02:47:55;88.68;;;51.55;;
22284;SDS011;11311;52.192;20.900;2023-03-01T02:50:36;99.88;;;54.78;;
22284;SDS011;11311;52.192;20.900;2023-03-01T02:53:13;96.07;;;54.03;;
22284;SDS011;11311;52.192;20.900;2023-03-01T02:55:45;99.35;;;53.13;;
22284;SDS011;11311;52.192;20.900;2023-03-01T02:58:15;77.67;;;41.53;;
22284;SDS011;11311;52.192;20.900;2023-03-01T03:00:45;97.63;;;54.45;;
22284;SDS011;11311;52.192;20.900;2023-03-01T03:03:17;105.80;;;55.45;;
22284;SDS011;11311;52.192;20.900;2023-03-01T03:05:49;93.00;;;51.90;;
22284;SDS011;11311;52.192;20.900;2023-03-01T03:08:18;104.43;;;53.67;;
22284;SDS011;11311;52.192;20.900;2023-03-01T03:10:52;94.10;;;52.30;;
22284;SDS011;11311;52.192;20.900;2023-03-01T03:13:21;98.90;;;52.75;;
22284;SDS011;11311;52.192;20.900;2023-03-01T03:15:57;95.40;;;50.13;;
22284;SDS011;11311;52.192;20.900;2023-03-01T03:18:26;97.22;;;51.85;;
22284;SDS011;11311;52.192;20.900;2023-03-01T03:20:56;82.63;;;44.17;;
22284;SDS011;11311;52.192;20.900;2023-03-01T03:23:25;98.83;;;53.53;;
22284;SDS011;11311;52.192;20.900;2023-03-01T03:25:54;95.13;;;50.07;;
22284;SDS011;11311;52.192;20.900;2023-03-01T03:28:23;95.57;;;51.05;;
22284;SDS011;11311;52.192;20.900;2023-03-01T03:30:53;93.55;;;52.28;;
22284;SDS011;11311;52.192;20.900;2023-03-01T03:33:23;96.07;;;52.75;;
22284;SDS011;11311;52.192;20.900;2023-03-01T03:35:52;94.47;;;50.13;;
22284;SDS011;11311;52.192;20.900;2023-03-01T03:38:22;94.57;;;54.20;;
22284;SDS011;11311;52.192;20.900;2023-03-01T03:40:51;95.78;;;53.90;;
22284;SDS011;11311;52.192;20.900;2023-03-01T03:43:22;99.82;;;52.42;;
22284;SDS011;11311;52.192;20.900;2023-03-01T03:45:53;93.18;;;50.80;;
22284;SDS011;11311;52.192;20.900;2023-03-01T03:48:25;91.47;;;50.90;;
22284;SDS011;11311;52.192;20.900;2023-03-01T03:50:55;95.63;;;51.53;;
22284;SDS011;11311;52.192;20.900;2023-03-01T03:53:26;96.72;;;49.47;;
22284;SDS011;11311;52.192;20.900;2023-03-01T03:55:58;88.90;;;50.47;;
22284;SDS011;11311;52.192;20.900;2023-03-01T03:58:27;88.97;;;49.53;;
22284;SDS011;11311;52.192;20.900;2023-03-01T04:00:56;75.85;;;40.58;;
22284;SDS011;11311;52.192;20.900;2023-03-01T04:03:27;88.70;;;52.03;;
22284;SDS011;11311;52.192;20.900;2023-03-01T04:05:57;89.07;;;48.80;;
22284;SDS011;11311;52.192;20.900;2023-03-01T04:08:27;97.43;;;53.28;;
22284;SDS011;11311;52.192;20.900;2023-03-01T04:10:57;75.95;;;40.97;;
22284;SDS011;11311;52.192;20.900;2023-03-01T04:13:27;95.75;;;51.13;;
22284;SDS011;11311;52.192;20.900;2023-03-01T04:15:57;96.03;;;52.47;;
22284;SDS011;11311;52.192;20.900;2023-03-01T04:18:27;99.25;;;51.05;;
22284;SDS011;11311;52.192;20.900;2023-03-01T04:21:03;103.38;;;51.03;;
22284;SDS011;11311;52.192;20.900;2023-03-01T04:23:32;97.65;;;50.13;;
22284;SDS011;11311;52.192;20.900;2023-03-01T04:26:02;103.13;;;52.00;;
22284;SDS011;11311;52.192;20.900;2023-03-01T04:28:31;101.03;;;50.88;;
22284;SDS011;11311;52.192;20.900;2023-03-01T04:31:02;101.43;;;52.10;;
22284;SDS011;11311;52.192;20.900;2023-03-01T04:33:42;98.80;;;52.83;;
22284;SDS011;11311;52.192;20.900;2023-03-01T04:36:12;93.65;;;51.08;;
22284;SDS011;11311;52.192;20.900;2023-03-01T04:38:43;88.68;;;49.10;;
22284;SDS011;11311;52.192;20.900;2023-03-01T04:41:15;98.03;;;50.00;;
22284;SDS011;11311;52.192;20.900;2023-03-01T04:43:45;100.68;;;52.28;;
22284;SDS011;11311;52.192;20.900;2023-03-01T04:46:16;90.85;;;49.88;;
22284;SDS011;11311;52.192;20.900;2023-03-01T04:48:47;96.18;;;50.88;;
22284;SDS011;11311;52.192;20.900;2023-03-01T04:51:17;97.82;;;50.80;;
22284;SDS011;11311;52.192;20.900;2023-03-01T04:53:46;77.25;;;40.90;;
22284;SDS011;11311;52.192;20.900;2023-03-01T04:56:16;91.57;;;51.63;;
22284;SDS011;11311;52.192;20.900;2023-03-01T04:58:45;88.97;;;50.10;;
22284;SDS011;11311;52.192;20.900;2023-03-01T05:01:15;88.18;;;42.55;;
22284;SDS011;11311;52.192;20.900;2023-03-01T05:03:48;96.55;;;51.50;;
22284;SDS011;11311;52.192;20.900;2023-03-01T05:06:19;87.35;;;48.33;;
22284;SDS011;11311;52.192;20.900;2023-03-01T05:08:48;106.53;;;52.58;;
22284;SDS011;11311;52.192;20.900;2023-03-01T05:11:18;95.47;;;52.13;;
22284;SDS011;11311;52.192;20.900;2023-03-01T05:13:46;96.30;;;51.22;;
22284;SDS011;11311;52.192;20.900;2023-03-01T05:16:17;93.50;;;49.35;;
22284;SDS011;11311;52.192;20.900;2023-03-01T05:18:48;93.55;;;50.75;;
22284;SDS011;11311;52.192;20.900;2023-03-01T05:21:18;94.75;;;51.38;;
22284;SDS011;11311;52.192;20.900;2023-03-01T05:23:48;91.32;;;50.58;;
22284;SDS011;11311;52.192;20.900;2023-03-01T05:26:18;89.05;;;48.95;;
22284;SDS011;11311;52.192;20.900;2023-03-01T05:28:54;93.60;;;48.95;;
22284;SDS011;11311;52.192;20.900;2023-03-01T05:31:26;100.82;;;50.40;;
22284;SDS011;11311;52.192;20.900;2023-03-01T05:33:59;90.43;;;47.95;;
22284;SDS011;11311;52.192;20.900;2023-03-01T05:36:29;84.57;;;44.78;;
22284;SDS011;11311;52.192;20.900;2023-03-01T05:39:01;87.35;;;45.25;;
22284;SDS011;11311;52.192;20.900;2023-03-01T05:41:30;89.18;;;49.15;;
22284;SDS011;11311;52.192;20.900;2023-03-01T05:44:00;69.18;;;38.63;;
22284;SDS011;11311;52.192;20.900;2023-03-01T05:46:31;81.18;;;46.50;;
22284;SDS011;11311;52.192;20.900;2023-03-01T05:49:02;88.82;;;45.42;;
22284;SDS011;11311;52.192;20.900;2023-03-01T05:51:31;79.70;;;43.90;;
22284;SDS011;11311;52.192;20.900;2023-03-01T05:54:01;78.95;;;44.58;;
22284;SDS011;11311;52.192;20.900;2023-03-01T05:56:32;75.70;;;44.15;;
22284;SDS011;11311;52.192;20.900;2023-03-01T05:59:02;70.82;;;38.22;;
22284;SDS011;11311;52.192;20.900;2023-03-01T06:01:32;86.55;;;49.42;;
22284;SDS011;11311;52.192;20.900;2023-03-01T06:04:04;82.65;;;45.05;;
22284;SDS011;11311;52.192;20.900;2023-03-01T06:06:33;87.32;;;45.97;;
22284;SDS011;11311;52.192;20.900;2023-03-01T06:09:04;88.97;;;48.53;;
22284;SDS011;11311;52.192;20.900;2023-03-01T06:11:34;88.15;;;45.83;;
22284;SDS011;11311;52.192;20.900;2023-03-01T06:14:05;78.65;;;43.72;;
22284;SDS011;11311;52.192;20.900;2023-03-01T06:16:34;83.93;;;46.13;;
22284;SDS011;11311;52.192;20.900;2023-03-01T06:19:05;67.00;;;38.80;;
22284;SDS011;11311;52.192;20.900;2023-03-01T06:21:34;85.80;;;44.50;;
22284;SDS011;11311;52.192;20.900;2023-03-01T06:24:04;89.93;;;48.22;;
22284;SDS011;11311;52.192;20.900;2023-03-01T06:26:35;80.90;;;45.55;;
22284;SDS011;11311;52.192;20.900;2023-03-01T06:29:04;88.18;;;45.08;;
22284;SDS011;11311;52.192;20.900;2023-03-01T06:31:34;74.05;;;41.92;;
22284;SDS011;11311;52.192;20.900;2023-03-01T06:34:04;84.13;;;45.58;;
22284;SDS011;11311;52.192;20.900;2023-03-01T06:36:34;75.95;;;42.78;;
22284;SDS011;11311;52.192;20.900;2023-03-01T06:39:03;84.80;;;45.45;;
22284;SDS011;11311;52.192;20.900;2023-03-01T06:41:32;74.63;;;43.80;;
22284;SDS011;11311;52.192;20.900;2023-03-01T06:44:02;76.15;;;43.80;;
22284;SDS011;11311;52.192;20.900;2023-03-01T06:46:31;77.60;;;44.00;;
22284;SDS011;11311;52.192;20.900;2023-03-01T06:49:01;71.95;;;42.47;;
22284;SDS011;11311;52.192;20.900;2023-03-01T06:51:33;77.45;;;42.00;;
22284;SDS011;11311;52.192;20.900;2023-03-01T06:54:03;71.25;;;42.53;;
22284;SDS011;11311;52.192;20.900;2023-03-01T06:56:33;67.88;;;40.53;;
22284;SDS011;11311;52.192;20.900;2023-03-01T06:59:03;77.28;;;40.20;;
22284;SDS011;11311;52.192;20.900;2023-03-01T07:01:32;75.13;;;42.25;;
22284;SDS011;11311;52.192;20.900;2023-03-01T07:06:33;65.03;;;39.78;;
22284;SDS011;11311;52.192;20.900;2023-03-01T07:09:02;76.63;;;40.25;;
22284;SDS011;11311;52.192;20.900;2023-03-01T07:11:32;70.95;;;39.75;;
22284;SDS011;11311;52.192;20.900;2023-03-01T07:14:01;64.35;;;38.70;;
22284;SDS011;11311;52.192;20.900;2023-03-01T07:16:30;69.53;;;41.03;;
22284;SDS011;11311;52.192;20.900;2023-03-01T07:19:00;68.03;;;38.30;;
22284;SDS011;11311;52.192;20.900;2023-03-01T07:21:31;68.65;;;39.00;;
22284;SDS011;11311;52.192;20.900;2023-03-01T07:24:02;64.55;;;38.38;;
22284;SDS011;11311;52.192;20.900;2023-03-01T07:26:31;68.03;;;40.65;;
22284;SDS011;11311;52.192;20.900;2023-03-01T07:29:04;62.45;;;38.20;;
22284;SDS011;11311;52.192;20.900;2023-03-01T07:31:34;61.50;;;36.72;;
22284;SDS011;11311;52.192;20.900;2023-03-01T07:34:03;60.70;;;36.20;;
22284;SDS011;11311;52.192;20.900;2023-03-01T07:36:33;61.10;;;36.70;;
22284;SDS011;11311;52.192;20.900;2023-03-01T07:39:03;59.00;;;35.17;;
22284;SDS011;11311;52.192;20.900;2023-03-01T07:41:32;58.35;;;37.00;;
22284;SDS011;11311;52.192;20.900;2023-03-01T07:44:02;60.72;;;35.97;;
22284;SDS011;11311;52.192;20.900;2023-03-01T07:46:31;58.90;;;34.90;;
22284;SDS011;11311;52.192;20.900;2023-03-01T07:49:00;60.20;;;36.23;;
22284;SDS011;11311;52.192;20.900;2023-03-01T07:51:32;60.20;;;33.88;;
22284;SDS011;11311;52.192;20.900;2023-03-01T07:54:01;59.85;;;35.28;;
22284;SDS011;11311;52.192;20.900;2023-03-01T07:56:32;65.72;;;36.92;;
22284;SDS011;11311;52.192;20.900;2023-03-01T07:59:01;52.92;;;35.95;;
22284;SDS011;11311;52.192;20.900;2023-03-01T08:01:30;53.70;;;32.65;;
22284;SDS011;11311;52.192;20.900;2023-03-01T08:03:59;52.55;;;34.10;;
22284;SDS011;11311;52.192;20.900;2023-03-01T08:06:28;51.78;;;33.95;;
22284;SDS011;11311;52.192;20.900;2023-03-01T08:08:59;48.80;;;31.15;;
22284;SDS011;11311;52.192;20.900;2023-03-01T08:11:28;48.05;;;32.08;;
22284;SDS011;11311;52.192;20.900;2023-03-01T08:13:59;49.10;;;32.28;;
22284;SDS011;11311;52.192;20.900;2023-03-01T08:18:57;50.30;;;33.97;;
22284;SDS011;11311;52.192;20.900;2023-03-01T08:21:28;53.03;;;31.73;;
22284;SDS011;11311;52.192;20.900;2023-03-01T08:23:58;49.38;;;29.27;;
22284;SDS011;11311;52.192;20.900;2023-03-01T08:26:29;53.60;;;31.25;;
22284;SDS011;11311;52.192;20.900;2023-03-01T08:29:02;56.35;;;29.80;;
22284;SDS011;11311;52.192;20.900;2023-03-01T08:31:32;45.30;;;32.00;;
22284;SDS011;11311;52.192;20.900;2023-03-01T08:34:04;42.05;;;30.20;;
22284;SDS011;11311;52.192;20.900;2023-03-01T08:36:35;44.38;;;30.35;;
22284;SDS011;11311;52.192;20.900;2023-03-01T08:39:07;43.40;;;27.83;;
22284;SDS011;11311;52.192;20.900;2023-03-01T08:41:37;40.72;;;28.70;;
22284;SDS011;11311;52.192;20.900;2023-03-01T08:44:09;41.53;;;26.55;;
22284;SDS011;11311;52.192;20.900;2023-03-01T08:46:39;46.03;;;27.48;;
22284;SDS011;11311;52.192;20.900;2023-03-01T08:49:11;45.45;;;27.85;;
22284;SDS011;11311;52.192;20.900;2023-03-01T08:51:41;43.35;;;26.30;;
22284;SDS011;11311;52.192;20.900;2023-03-01T08:54:11;47.13;;;28.13;;
22284;SDS011;11311;52.192;20.900;2023-03-01T08:56:42;40.75;;;26.77;;
22284;SDS011;11311;52.192;20.900;2023-03-01T08:59:13;37.50;;;25.43;;
22284;SDS011;11311;52.192;20.900;2023-03-01T09:01:44;40.65;;;26.08;;
22284;SDS011;11311;52.192;20.900;2023-03-01T09:04:14;41.00;;;27.13;;
22284;SDS011;11311;52.192;20.900;2023-03-01T09:06:43;43.70;;;25.88;;
22284;SDS011;11311;52.192;20.900;2023-03-01T09:09:13;44.47;;;26.33;;
22284;SDS011;11311;52.192;20.900;2023-03-01T09:11:43;37.70;;;23.65;;
22284;SDS011;11311;52.192;20.900;2023-03-01T09:14:15;36.35;;;23.80;;
22284;SDS011;11311;52.192;20.900;2023-03-01T09:16:44;42.30;;;27.00;;
22284;SDS011;11311;52.192;20.900;2023-03-01T09:19:14;35.40;;;25.48;;
22284;SDS011;11311;52.192;20.900;2023-03-01T09:21:43;38.88;;;25.02;;
22284;SDS011;11311;52.192;20.900;2023-03-01T09:24:20;33.40;;;24.50;;
22284;SDS011;11311;52.192;20.900;2023-03-01T09:26:50;40.15;;;24.23;;
22284;SDS011;11311;52.192;20.900;2023-03-01T09:29:23;35.90;;;24.85;;
22284;SDS011;11311;52.192;20.900;2023-03-01T09:31:52;36.80;;;25.45;;
22284;SDS011;11311;52.192;20.900;2023-03-01T09:34:23;36.03;;;23.38;;
22284;SDS011;11311;52.192;20.900;2023-03-01T09:36:52;32.25;;;22.55;;
22284;SDS011;11311;52.192;20.900;2023-03-01T09:39:21;43.88;;;24.48;;
22284;SDS011;11311;52.192;20.900;2023-03-01T09:41:53;38.65;;;24.67;;
22284;SDS011;11311;52.192;20.900;2023-03-01T09:44:29;36.17;;;24.17;;
22284;SDS011;11311;52.192;20.900;2023-03-01T09:47:02;38.17;;;24.48;;
22284;SDS011;11311;52.192;20.900;2023-03-01T09:49:31;37.22;;;22.67;;
22284;SDS011;11311;52.192;20.900;2023-03-01T09:52:03;35.13;;;22.08;;
22284;SDS011;11311;52.192;20.900;2023-03-01T09:54:40;35.00;;;24.23;;
22284;SDS011;11311;52.192;20.900;2023-03-01T09:57:15;32.40;;;20.73;;
22284;SDS011;11311;52.192;20.900;2023-03-01T09:59:59;34.47;;;23.15;;
22284;SDS011;11311;52.192;20.900;2023-03-01T10:02:35;33.97;;;21.48;;
22284;SDS011;11311;52.192;20.900;2023-03-01T10:05:14;32.88;;;21.17;;
22284;SDS011;11311;52.192;20.900;2023-03-01T10:08:05;30.13;;;20.25;;
22284;SDS011;11311;52.192;20.900;2023-03-01T10:10:44;31.65;;;18.48;;
22284;SDS011;11311;52.192;20.900;2023-03-01T10:13:16;24.95;;;17.33;;
22284;SDS011;11311;52.192;20.900;2023-03-01T10:15:52;25.45;;;17.33;;
22284;SDS011;11311;52.192;20.900;2023-03-01T10:18:24;23.38;;;16.55;;
22284;SDS011;11311;52.192;20.900;2023-03-01T10:20:56;25.17;;;17.08;;
22284;SDS011;11311;52.192;20.900;2023-03-01T10:23:28;24.70;;;17.10;;
22284;SDS011;11311;52.192;20.900;2023-03-01T10:26:12;23.48;;;16.00;;
22284;SDS011;11311;52.192;20.900;2023-03-01T10:29:00;25.08;;;15.02;;
22284;SDS011;11311;52.192;20.900;2023-03-01T10:31:35;22.17;;;15.68;;
22284;SDS011;11311;52.192;20.900;2023-03-01T10:34:08;19.33;;;13.45;;
22284;SDS011;11311;52.192;20.900;2023-03-01T10:36:40;21.33;;;14.52;;
22284;SDS011;11311;52.192;20.900;2023-03-01T10:39:12;17.10;;;12.43;;
22284;SDS011;11311;52.192;20.900;2023-03-01T10:41:52;21.98;;;15.13;;
22284;SDS011;11311;52.192;20.900;2023-03-01T10:44:38;22.63;;;15.98;;
22284;SDS011;11311;52.192;20.900;2023-03-01T10:47:18;17.65;;;13.63;;
22284;SDS011;11311;52.192;20.900;2023-03-01T10:49:52;19.38;;;14.35;;
22284;SDS011;11311;52.192;20.900;2023-03-01T10:52:32;22.70;;;15.48;;
22284;SDS011;11311;52.192;20.900;2023-03-01T10:55:04;24.30;;;15.48;;
22284;SDS011;11311;52.192;20.900;2023-03-01T10:58:05;22.70;;;14.32;;
22284;SDS011;11311;52.192;20.900;2023-03-01T11:00:46;21.92;;;16.10;;
22284;SDS011;11311;52.192;20.900;2023-03-01T11:03:21;23.65;;;16.23;;
22284;SDS011;11311;52.192;20.900;2023-03-01T11:05:52;24.67;;;15.13;;
22284;SDS011;11311;52.192;20.900;2023-03-01T11:08:30;25.67;;;15.15;;
22284;SDS011;11311;52.192;20.900;2023-03-01T11:11:06;23.33;;;15.02;;
22284;SDS011;11311;52.192;20.900;2023-03-01T11:13:47;19.58;;;14.55;;
22284;SDS011;11311;52.192;20.900;2023-03-01T11:19:18;20.52;;;13.98;;
22284;SDS011;11311;52.192;20.900;2023-03-01T11:21:54;28.92;;;15.80;;
22284;SDS011;11311;52.192;20.900;2023-03-01T11:24:27;23.13;;;15.13;;
22284;SDS011;11311;52.192;20.900;2023-03-01T11:27:04;21.00;;;13.60;;
22284;SDS011;11311;52.192;20.900;2023-03-01T11:29:46;23.55;;;13.82;;
22284;SDS011;11311;52.192;20.900;2023-03-01T11:32:19;16.20;;;13.52;;
22284;SDS011;11311;52.192;20.900;2023-03-01T11:34:54;18.90;;;13.73;;
22284;SDS011;11311;52.192;20.900;2023-03-01T11:37:32;21.70;;;13.15;;
22284;SDS011;11311;52.192;20.900;2023-03-01T11:40:07;23.30;;;14.63;;
22284;SDS011;11311;52.192;20.900;2023-03-01T11:42:43;20.08;;;13.70;;
22284;SDS011;11311;52.192;20.900;2023-03-01T11:45:17;18.08;;;12.68;;
22284;SDS011;11311;52.192;20.900;2023-03-01T11:47:52;20.73;;;13.00;;
22284;SDS011;11311;52.192;20.900;2023-03-01T11:50:35;18.42;;;12.70;;
22284;SDS011;11311;52.192;20.900;2023-03-01T11:53:16;23.10;;;14.27;;
22284;SDS011;11311;52.192;20.900;2023-03-01T11:56:03;22.40;;;13.60;;
22284;SDS011;11311;52.192;20.900;2023-03-01T11:58:44;21.33;;;13.77;;
22284;SDS011;11311;52.192;20.900;2023-03-01T12:01:24;19.90;;;14.70;;
22284;SDS011;11311;52.192;20.900;2023-03-01T12:04:10;20.25;;;13.75;;
22284;SDS011;11311;52.192;20.900;2023-03-01T12:06:57;20.63;;;13.48;;
22284;SDS011;11311;52.192;20.900;2023-03-01T12:15:18;18.35;;;13.52;;
22284;SDS011;11311;52.192;20.900;2023-03-01T12:18:12;22.60;;;14.55;;
22284;SDS011;11311;52.192;20.900;2023-03-01T12:20:51;19.08;;;13.32;;
22284;SDS011;11311;52.192;20.900;2023-03-01T12:23:45;20.15;;;13.60;;
22284;SDS011;11311;52.192;20.900;2023-03-01T12:26:24;20.42;;;13.40;;
22284;SDS011;11311;52.192;20.900;2023-03-01T12:28:59;20.88;;;13.65;;
22284;SDS011;11311;52.192;20.900;2023-03-01T12:31:38;23.20;;;12.95;;
22284;SDS011;11311;52.192;20.900;2023-03-01T12:34:54;17.88;;;12.95;;
22284;SDS011;11311;52.192;20.900;2023-03-01T12:37:47;19.42;;;14.45;;
22284;SDS011;11311;52.192;20.900;2023-03-01T12:40:27;20.10;;;12.90;;
22284;SDS011;11311;52.192;20.900;2023-03-01T12:43:08;20.92;;;14.25;;
22284;SDS011;11311;52.192;20.900;2023-03-01T12:45:47;18.90;;;13.70;;
22284;SDS011;11311;52.192;20.900;2023-03-01T12:48:24;21.85;;;13.50;;
22284;SDS011;11311;52.192;20.900;2023-03-01T12:51:01;26.70;;;13.85;;
22284;SDS011;11311;52.192;20.900;2023-03-01T12:53:34;20.23;;;13.95;;
22284;SDS011;11311;52.192;20.900;2023-03-01T12:56:07;19.77;;;13.75;;
22284;SDS011;11311;52.192;20.900;2023-03-01T12:58:39;19.42;;;13.75;;
22284;SDS011;11311;52.192;20.900;2023-03-01T13:01:21;22.17;;;15.27;;
22284;SDS011;11311;52.192;20.900;2023-03-01T13:04:03;22.65;;;14.90;;
22284;SDS011;11311;52.192;20.900;2023-03-01T13:06:43;23.67;;;14.55;;
22284;SDS011;11311;52.192;20.900;2023-03-01T13:09:19;18.85;;;14.02;;
22284;SDS011;11311;52.192;20.900;2023-03-01T13:11:55;19.98;;;13.65;;
22284;SDS011;11311;52.192;20.900;2023-03-01T13:14:42;19.88;;;15.02;;
22284;SDS011;11311;52.192;20.900;2023-03-01T13:17:29;20.58;;;15.23;;
22284;SDS011;11311;52.192;20.900;2023-03-01T13:20:00;25.08;;;15.35;;
22284;SDS011;11311;52.192;20.900;2023-03-01T13:22:32;22.45;;;15.60;;
22284;SDS011;11311;52.192;20.900;2023-03-01T13:25:16;19.63;;;14.52;;
22284;SDS011;11311;52.192;20.900;2023-03-01T13:27:48;25.08;;;15.95;;
22284;SDS011;11311;52.192;20.900;2023-03-01T13:39:26;25.92;;;15.90;;
22284;SDS011;11311;52.192;20.900;2023-03-01T13:42:00;24.55;;;16.40;;
22284;SDS011;11311;52.192;20.900;2023-03-01T13:44:32;24.43;;;16.23;;
22284;SDS011;11311;52.192;20.900;2023-03-01T13:47:14;20.65;;;15.65;;
22284;SDS011;11311;52.192;20.900;2023-03-01T13:49:49;25.25;;;17.02;;
22284;SDS011;11311;52.192;20.900;2023-03-01T13:55:19;24.75;;;16.55;;
22284;SDS011;11311;52.192;20.900;2023-03-01T13:57:52;24.98;;;16.25;;
22284;SDS011;11311;52.192;20.900;2023-03-01T14:00:29;23.13;;;15.90;;
22284;SDS011;11311;52.192;20.900;2023-03-01T14:03:01;24.20;;;16.17;;
22284;SDS011;11311;52.192;20.900;2023-03-01T14:05:32;23.35;;;17.45;;
22284;SDS011;11311;52.192;20.900;2023-03-01T14:08:03;29.77;;;16.92;;
22284;SDS011;11311;52.192;20.900;2023-03-01T14:10:35;22.15;;;17.73;;
22284;SDS011;11311;52.192;20.900;2023-03-01T14:13:17;26.00;;;16.42;;
22284;SDS011;11311;52.192;20.900;2023-03-01T14:16:02;27.10;;;17.38;;
22284;SDS011;11311;52.192;20.900;2023-03-01T14:18:39;20.33;;;14.35;;
22284;SDS011;11311;52.192;20.900;2023-03-01T14:21:13;22.88;;;15.82;;
22284;SDS011;11311;52.192;20.900;2023-03-01T14:23:42;22.73;;;16.55;;
22284;SDS011;11311;52.192;20.900;2023-03-01T14:26:14;23.83;;;15.38;;
22284;SDS011;11311;52.192;20.900;2023-03-01T14:28:48;23.30;;;16.25;;
22284;SDS011;11311;52.192;20.900;2023-03-01T14:31:36;22.17;;;15.03;;
22284;SDS011;11311;52.192;20.900;2023-03-01T14:34:20;22.27;;;15.60;;
22284;SDS011;11311;52.192;20.900;2023-03-01T14:36:50;22.77;;;15.38;;
22284;SDS011;11311;52.192;20.900;2023-03-01T14:39:20;22.00;;;15.82;;
22284;SDS011;11311;52.192;20.900;2023-03-01T14:41:53;30.08;;;18.48;;
22284;SDS011;11311;52.192;20.900;2023-03-01T14:44:28;27.27;;;17.05;;
22284;SDS011;11311;52.192;20.900;2023-03-01T14:47:02;27.23;;;15.48;;
22284;SDS011;11311;52.192;20.900;2023-03-01T14:49:32;22.40;;;16.55;;
22284;SDS011;11311;52.192;20.900;2023-03-01T14:52:04;23.35;;;16.88;;
22284;SDS011;11311;52.192;20.900;2023-03-01T14:54:36;23.95;;;15.57;;
22284;SDS011;11311;52.192;20.900;2023-03-01T14:57:12;21.35;;;16.30;;
22284;SDS011;11311;52.192;20.900;2023-03-01T14:59:43;26.70;;;18.02;;
22284;SDS011;11311;52.192;20.900;2023-03-01T15:02:17;24.27;;;17.67;;
22284;SDS011;11311;52.192;20.900;2023-03-01T15:04:48;26.10;;;16.27;;
22284;SDS011;11311;52.192;20.900;2023-03-01T15:07:19;27.95;;;18.20;;
22284;SDS011;11311;52.192;20.900;2023-03-01T15:09:48;23.92;;;18.02;;
22284;SDS011;11311;52.192;20.900;2023-03-01T15:12:37;33.58;;;18.90;;
22284;SDS011;11311;52.192;20.900;2023-03-01T15:15:21;28.40;;;19.38;;